Time;durP1;ratioP1;P1;durP2;ratioP2;P2;SDS_P1;SDS_P2;PMS_P1;PMS_P2;Temp;Humidity;BMP_temperature;BMP_pressure;BME280_temperature;BME280_humidity;BME280_pressure;Samples;Min_cycle;Max_cycle;Signal;HPM_P1;HPM_P2
2022/08/28 00:02:06;;;;;;;;;;;19.50;84.00;;;;;;5075752;28;19944;-67
2022/08/28 00:04:32;;;;;;;;;;;19.40;85.40;;;;;;5065612;28;19912;-68
2022/08/28 00:06:57;;;;;;;;;;;19.40;86.90;;;;;;5068985;28;19913;-67
2022/08/28 00:09:23;;;;;;;;;;;19.40;86.60;;;;;;5074423;28;19916;-68
2022/08/28 00:11:49;;;;;;;;;;;19.40;87.40;;;;;;5071893;28;20377;-67
2022/08/28 00:14:17;;;;;;;;;;;19.30;87.30;;;;;;5073585;28;19955;-67
2022/08/28 00:16:43;;;;;;;;;;;19.20;87.50;;;;;;5068081;28;19909;-67
2022/08/28 00:19:09;;;;;;;;;;;19.10;89.60;;;;;;5071400;28;19909;-67
2022/08/28 00:21:36;;;;;;;;;;;19.00;89.90;;;;;;5077899;28;19913;-67
2022/08/28 00:24:01;;;;;;;;;;;19.00;90.40;;;;;;5067269;28;19916;-67
2022/08/28 00:29:11;;;;;;;;;;;18.90;90.50;;;;;;5078854;28;19974;-67
2022/08/28 00:31:38;;;;;;;;;;;18.80;90.80;;;;;;5063663;28;19924;-67
2022/08/28 00:34:04;;;;;;;;;;;18.70;92.10;;;;;;5065180;28;19917;-67
2022/08/28 00:36:30;;;;;;;;;;;18.60;92.10;;;;;;5071343;28;19920;-67
2022/08/28 00:38:58;;;;;;;;;;;18.60;92.50;;;;;;5070823;28;19909;-67
2022/08/28 00:41:25;;;;;;;;;;;18.50;92.90;;;;;;5078564;28;19915;-67
2022/08/28 00:44:03;;;;;;;;;;;18.40;93.60;;;;;;5070678;28;19950;-67
2022/08/28 00:46:28;;;;;;;;;;;18.20;94.30;;;;;;5090506;28;19913;-68
2022/08/28 00:48:54;;;;;;;;;;;18.10;95.40;;;;;;5078958;28;19912;-67
2022/08/28 00:54:05;;;;;;;;;;;18.00;96.70;;;;;;5072972;28;20414;-66
2022/08/28 00:56:31;;;;;;;;;;;17.90;97.50;;;;;;5075361;28;19912;-67
2022/08/28 00:59:00;;;;;;;;;;;17.90;98.20;;;;;;5068858;28;19908;-67
2022/08/28 01:01:25;;;;;;;;;;;17.80;98.60;;;;;;5069051;28;19909;-67
2022/08/28 01:03:51;;;;;;;;;;;17.60;99.90;;;;;;5070253;28;19919;-67
2022/08/28 01:06:18;;;;;;;;;;;17.60;99.90;;;;;;5065935;28;19974;-66
2022/08/28 01:08:45;;;;;;;;;;;17.50;99.90;;;;;;5068087;28;19939;-67
2022/08/28 01:11:11;;;;;;;;;;;17.50;99.90;;;;;;5092235;28;19972;-67
2022/08/28 01:13:40;;;;;;;;;;;17.50;99.90;;;;;;5069345;28;19921;-68
2022/08/28 01:16:06;;;;;;;;;;;17.60;99.90;;;;;;5070377;28;19976;-67
2022/08/28 01:18:32;;;;;;;;;;;17.60;99.90;;;;;;5070784;28;19967;-67
2022/08/28 01:21:09;;;;;;;;;;;17.50;99.90;;;;;;5067969;28;19949;-67
2022/08/28 01:23:44;;;;;;;;;;;17.50;99.90;;;;;;5070165;28;19936;-67
2022/08/28 01:26:10;;;;;;;;;;;17.60;99.90;;;;;;5065342;28;19932;-67
2022/08/28 01:28:35;;;;;;;;;;;17.50;99.90;;;;;;5067879;28;20364;-67
2022/08/28 01:31:01;;;;;;;;;;;17.50;99.90;;;;;;5072014;28;19912;-67
2022/08/28 01:33:27;;;;;;;;;;;17.50;99.90;;;;;;5066479;28;19931;-67
2022/08/28 01:35:52;;;;;;;;;;;17.50;99.90;;;;;;5076165;28;20024;-67
2022/08/28 01:38:18;;;;;;;;;;;17.40;99.90;;;;;;5067250;28;19913;-67
2022/08/28 01:40:45;;;;;;;;;;;17.40;99.90;;;;;;5067724;28;19963;-67
2022/08/28 01:43:12;;;;;;;;;;;17.40;99.90;;;;;;5067953;28;20287;-67
2022/08/28 01:45:43;;;;;;;;;;;17.40;99.90;;;;;;5076669;28;19935;-67
2022/08/28 01:48:08;;;;;;;;;;;17.40;99.90;;;;;;5066686;28;19913;-68
2022/08/28 01:50:34;;;;;;;;;;;17.20;99.90;;;;;;5069435;28;20018;-68
2022/08/28 01:53:00;;;;;;;;;;;17.20;99.90;;;;;;5063186;28;19920;-67
2022/08/28 01:55:26;;;;;;;;;;;17.10;99.90;;;;;;5089481;28;19918;-67
2022/08/28 01:57:53;;;;;;;;;;;17.10;99.90;;;;;;5084695;28;19913;-68
2022/08/28 02:00:19;;;;;;;;;;;17.10;99.90;;;;;;5065926;28;19913;-67
2022/08/28 02:02:46;;;;;;;;;;;17.00;99.90;;;;;;5071785;28;19909;-68
2022/08/28 02:05:11;;;;;;;;;;;17.20;99.90;;;;;;5078648;28;19913;-67
2022/08/28 02:07:37;;;;;;;;;;;17.20;99.90;;;;;;5066628;28;19913;-67
2022/08/28 02:10:05;;;;;;;;;;;17.20;99.90;;;;;;5065681;28;19962;-67
2022/08/28 02:12:30;;;;;;;;;;;17.20;99.90;;;;;;5068737;28;20157;-68
2022/08/28 02:14:56;;;;;;;;;;;17.20;99.90;;;;;;5066183;28;19916;-68
2022/08/28 02:17:21;;;;;;;;;;;17.10;99.90;;;;;;5070464;28;19913;-68
2022/08/28 02:19:47;;;;;;;;;;;17.00;99.90;;;;;;5072785;28;19916;-67
2022/08/28 02:22:12;;;;;;;;;;;17.00;99.90;;;;;;5066446;28;19909;-68
2022/08/28 02:24:38;;;;;;;;;;;16.90;99.90;;;;;;5066603;28;20003;-67
2022/08/28 02:27:04;;;;;;;;;;;16.90;99.90;;;;;;5062891;28;19913;-67
2022/08/28 02:29:30;;;;;;;;;;;17.00;99.90;;;;;;5066521;28;20403;-67
2022/08/28 02:31:55;;;;;;;;;;;17.00;99.90;;;;;;5066482;28;19964;-67
2022/08/28 02:34:22;;;;;;;;;;;16.90;99.90;;;;;;5085977;28;19956;-68
2022/08/28 02:36:48;;;;;;;;;;;16.90;99.90;;;;;;5071852;28;19923;-67
2022/08/28 02:39:14;;;;;;;;;;;16.90;99.90;;;;;;5076301;28;19908;-67
2022/08/28 02:41:39;;;;;;;;;;;16.90;99.90;;;;;;5063145;28;19913;-67
2022/08/28 02:44:05;;;;;;;;;;;16.80;99.90;;;;;;5071254;28;19934;-68
2022/08/28 02:46:30;;;;;;;;;;;16.80;99.90;;;;;;5076239;28;20263;-67
2022/08/28 02:48:56;;;;;;;;;;;16.70;99.90;;;;;;5068140;28;19974;-67
2022/08/28 02:51:21;;;;;;;;;;;16.70;99.90;;;;;;5070954;28;19912;-67
2022/08/28 02:53:48;;;;;;;;;;;16.60;99.90;;;;;;5069130;28;19920;-67
2022/08/28 02:56:14;;;;;;;;;;;16.50;99.90;;;;;;5072151;28;19916;-67
2022/08/28 02:58:39;;;;;;;;;;;16.50;99.90;;;;;;5065432;28;19912;-67
2022/08/28 03:01:06;;;;;;;;;;;16.40;99.90;;;;;;5072194;28;19920;-67
2022/08/28 03:03:31;;;;;;;;;;;16.40;99.90;;;;;;5074678;28;19913;-67
2022/08/28 03:05:58;;;;;;;;;;;16.30;99.90;;;;;;5066670;28;19913;-68
2022/08/28 03:08:24;;;;;;;;;;;16.30;99.90;;;;;;5069610;28;19944;-67
2022/08/28 03:10:50;;;;;;;;;;;16.20;99.90;;;;;;5071933;28;19958;-67
2022/08/28 03:13:17;;;;;;;;;;;16.20;99.90;;;;;;5067049;28;19924;-67
2022/08/28 03:15:43;;;;;;;;;;;16.10;99.90;;;;;;5065749;28;19916;-68
2022/08/28 03:18:08;;;;;;;;;;;16.10;99.90;;;;;;5067552;28;19936;-67
2022/08/28 03:20:34;;;;;;;;;;;16.10;99.90;;;;;;5072024;28;19912;-68
2022/08/28 03:25:44;;;;;;;;;;;16.00;99.90;;;;;;5074932;28;19920;-67
2022/08/28 03:28:10;;;;;;;;;;;15.90;99.90;;;;;;5078593;28;19912;-67
2022/08/28 03:30:36;;;;;;;;;;;15.90;99.90;;;;;;5068548;28;20446;-68
2022/08/28 03:33:02;;;;;;;;;;;15.90;99.90;;;;;;5071534;28;19920;-67
2022/08/28 03:35:27;;;;;;;;;;;15.90;99.90;;;;;;5069978;28;19915;-68
2022/08/28 03:37:53;;;;;;;;;;;15.80;99.90;;;;;;5075275;28;19928;-67
2022/08/28 03:40:19;;;;;;;;;;;15.90;99.90;;;;;;5076473;28;19912;-67
2022/08/28 03:42:44;;;;;;;;;;;15.70;99.90;;;;;;5073194;28;19913;-67
2022/08/28 03:45:10;;;;;;;;;;;15.60;99.90;;;;;;5077589;28;19999;-67
2022/08/28 03:47:37;;;;;;;;;;;15.40;99.90;;;;;;5070295;28;20279;-67
2022/08/28 03:50:03;;;;;;;;;;;15.50;99.90;;;;;;5071455;28;19946;-67
2022/08/28 03:52:28;;;;;;;;;;;15.40;99.90;;;;;;5067822;28;19943;-67
2022/08/28 03:54:54;;;;;;;;;;;15.30;99.90;;;;;;5071466;28;19913;-67
2022/08/28 03:57:20;;;;;;;;;;;15.30;99.90;;;;;;5079633;28;19930;-67
2022/08/28 03:59:47;;;;;;;;;;;15.30;99.90;;;;;;5082236;28;19912;-67
2022/08/28 04:02:13;;;;;;;;;;;15.20;99.90;;;;;;5073827;28;19916;-67
2022/08/28 04:04:38;;;;;;;;;;;15.20;99.90;;;;;;5077595;28;20007;-67
2022/08/28 04:07:04;;;;;;;;;;;15.20;99.90;;;;;;5078389;28;19908;-68
2022/08/28 04:09:29;;;;;;;;;;;15.30;99.90;;;;;;5072515;28;19944;-67
2022/08/28 04:11:55;;;;;;;;;;;15.20;99.90;;;;;;5069103;28;19920;-68
2022/08/28 04:14:20;;;;;;;;;;;15.20;99.90;;;;;;5069910;28;19917;-67
2022/08/28 04:16:46;;;;;;;;;;;15.10;99.90;;;;;;5079451;28;19909;-67
2022/08/28 04:19:12;;;;;;;;;;;15.20;99.90;;;;;;5081365;28;19916;-67
2022/08/28 04:21:38;;;;;;;;;;;15.20;99.90;;;;;;5072394;28;19916;-67
2022/08/28 04:24:04;;;;;;;;;;;15.10;99.90;;;;;;5080041;28;19919;-67
2022/08/28 04:26:35;;;;;;;;;;;15.10;99.90;;;;;;5075405;28;19909;-67
2022/08/28 04:29:01;;;;;;;;;;;15.10;99.90;;;;;;5075749;28;19912;-67
2022/08/28 04:31:27;;;;;;;;;;;15.20;99.90;;;;;;5072445;28;19913;-67
2022/08/28 04:33:52;;;;;;;;;;;15.20;99.90;;;;;;5082823;28;19924;-67
2022/08/28 04:36:18;;;;;;;;;;;15.20;99.90;;;;;;5074979;28;19986;-67
2022/08/28 04:38:44;;;;;;;;;;;15.20;99.90;;;;;;5079924;28;20349;-68
2022/08/28 04:41:11;;;;;;;;;;;15.20;99.90;;;;;;5083152;28;20003;-67
2022/08/28 04:43:37;;;;;;;;;;;15.10;99.90;;;;;;5072687;28;20000;-68
2022/08/28 04:46:04;;;;;;;;;;;15.10;99.90;;;;;;5069810;28;19912;-67
2022/08/28 04:48:29;;;;;;;;;;;15.10;99.90;;;;;;5074864;28;19916;-67
2022/08/28 04:50:55;;;;;;;;;;;15.10;99.90;;;;;;5078888;28;19920;-68
2022/08/28 04:53:20;;;;;;;;;;;15.00;99.90;;;;;;5071463;28;19983;-68
2022/08/28 04:55:48;;;;;;;;;;;15.10;99.90;;;;;;5070994;28;19912;-67
2022/08/28 04:58:14;;;;;;;;;;;15.10;99.90;;;;;;5079267;28;19913;-68
2022/08/28 05:00:41;;;;;;;;;;;15.10;99.90;;;;;;5080509;28;19919;-67
2022/08/28 05:03:06;;;;;;;;;;;15.10;99.90;;;;;;5072373;28;19965;-67
2022/08/28 05:05:33;;;;;;;;;;;15.00;99.90;;;;;;5069599;28;19916;-67
2022/08/28 05:07:58;;;;;;;;;;;15.10;99.90;;;;;;5071792;28;19923;-67
2022/08/28 05:10:24;;;;;;;;;;;15.10;99.90;;;;;;5078040;28;19913;-67
2022/08/28 05:12:50;;;;;;;;;;;15.20;99.90;;;;;;5082957;28;19907;-68
2022/08/28 05:15:15;;;;;;;;;;;15.20;99.90;;;;;;5074602;28;19921;-67
2022/08/28 05:17:41;;;;;;;;;;;15.20;99.90;;;;;;5077274;28;19944;-67
2022/08/28 05:20:07;;;;;;;;;;;15.20;99.90;;;;;;5074582;28;20273;-67
2022/08/28 05:22:32;;;;;;;;;;;15.20;99.90;;;;;;5076205;28;20008;-67
2022/08/28 05:24:59;;;;;;;;;;;15.20;99.90;;;;;;5074098;28;19919;-68
2022/08/28 05:27:26;;;;;;;;;;;15.10;99.90;;;;;;5086703;28;19920;-67
2022/08/28 05:29:52;;;;;;;;;;;15.10;99.90;;;;;;5079247;28;19913;-67
2022/08/28 05:32:18;;;;;;;;;;;15.10;99.90;;;;;;5085571;28;19917;-67
2022/08/28 05:34:44;;;;;;;;;;;15.10;99.90;;;;;;5072292;28;19976;-68
2022/08/28 05:37:09;;;;;;;;;;;15.10;99.90;;;;;;5076611;28;19928;-67
2022/08/28 05:39:35;;;;;;;;;;;15.20;99.90;;;;;;5078138;28;19931;-67
2022/08/28 05:42:04;;;;;;;;;;;15.20;99.90;;;;;;5071669;28;19920;-67
2022/08/28 05:44:30;;;;;;;;;;;15.20;99.90;;;;;;5073075;28;19916;-67
2022/08/28 05:46:55;;;;;;;;;;;15.20;99.90;;;;;;5071817;28;19909;-67
2022/08/28 05:49:21;;;;;;;;;;;15.20;99.90;;;;;;5079195;28;20351;-67
2022/08/28 05:51:47;;;;;;;;;;;15.20;99.90;;;;;;5081692;28;19977;-67
2022/08/28 05:54:14;;;;;;;;;;;15.20;99.90;;;;;;5069465;28;19948;-68
2022/08/28 05:56:40;;;;;;;;;;;15.20;99.90;;;;;;5068103;28;19913;-67
2022/08/28 05:59:07;;;;;;;;;;;15.30;99.90;;;;;;5076046;28;20370;-67
2022/08/28 06:01:38;;;;;;;;;;;15.20;99.90;;;;;;5072676;28;19991;-67
2022/08/28 06:04:06;;;;;;;;;;;15.30;99.90;;;;;;5062771;28;19989;-68
2022/08/28 06:06:35;;;;;;;;;;;15.40;99.90;;;;;;5066131;28;19959;-68
2022/08/28 06:09:07;;;;;;;;;;;15.30;99.90;;;;;;5067538;28;20304;-67
2022/08/28 06:11:32;;;;;;;;;;;15.40;99.90;;;;;;5080509;28;19917;-67
2022/08/28 06:14:01;;;;;;;;;;;15.50;99.90;;;;;;5066383;28;19917;-68
2022/08/28 06:16:27;;;;;;;;;;;15.50;99.90;;;;;;5076860;28;19991;-68
2022/08/28 06:18:54;;;;;;;;;;;15.60;99.90;;;;;;5068084;28;19932;-67
2022/08/28 06:21:20;;;;;;;;;;;15.50;99.90;;;;;;5075179;28;20333;-67
2022/08/28 06:23:45;;;;;;;;;;;15.60;99.90;;;;;;5071363;28;19916;-67
2022/08/28 06:26:11;;;;;;;;;;;15.70;99.90;;;;;;5076206;28;19948;-67
2022/08/28 06:28:36;;;;;;;;;;;15.70;99.90;;;;;;5068389;28;19920;-67
2022/08/28 06:31:03;;;;;;;;;;;15.70;99.90;;;;;;5066754;28;19967;-67
2022/08/28 06:33:29;;;;;;;;;;;15.70;99.90;;;;;;5065783;28;20413;-68
2022/08/28 06:35:55;;;;;;;;;;;15.70;99.90;;;;;;5073028;28;19916;-68
2022/08/28 06:38:22;;;;;;;;;;;15.70;99.90;;;;;;5070692;28;19915;-68
2022/08/28 06:40:51;;;;;;;;;;;15.70;99.90;;;;;;5069782;28;19916;-67
2022/08/28 06:43:18;;;;;;;;;;;15.70;99.90;;;;;;5070922;28;19932;-67
2022/08/28 06:45:44;;;;;;;;;;;15.80;99.90;;;;;;5075592;28;19992;-67
2022/08/28 06:48:15;;;;;;;;;;;15.80;99.90;;;;;;5067141;28;19913;-68
2022/08/28 06:50:54;;;;;;;;;;;15.90;99.90;;;;;;5072611;28;19913;-68
2022/08/28 06:53:21;;;;;;;;;;;16.00;99.90;;;;;;5079622;28;19970;-67
2022/08/28 06:55:59;;;;;;;;;;;16.10;99.90;;;;;;5075256;28;20354;-67
2022/08/28 06:58:26;;;;;;;;;;;16.20;99.90;;;;;;5094002;28;19944;-68
2022/08/28 07:01:03;;;;;;;;;;;16.20;99.90;;;;;;5078370;28;19912;-67
2022/08/28 07:03:29;;;;;;;;;;;16.30;99.90;;;;;;5075746;28;19913;-67
2022/08/28 07:05:58;;;;;;;;;;;16.20;99.90;;;;;;5069818;28;20054;-68
2022/08/28 07:08:24;;;;;;;;;;;16.20;99.90;;;;;;5068163;28;19913;-68
2022/08/28 07:10:50;;;;;;;;;;;16.20;99.90;;;;;;5071442;28;19908;-67
2022/08/28 07:13:15;;;;;;;;;;;16.40;99.90;;;;;;5069818;28;19921;-68
2022/08/28 07:15:41;;;;;;;;;;;16.40;99.90;;;;;;5071196;28;19931;-68
2022/08/28 07:18:06;;;;;;;;;;;16.50;99.90;;;;;;5075613;28;19912;-67
2022/08/28 07:20:32;;;;;;;;;;;16.60;99.90;;;;;;5087521;28;19912;-68
2022/08/28 07:22:57;;;;;;;;;;;16.70;99.90;;;;;;5070479;28;19968;-68
2022/08/28 07:25:23;;;;;;;;;;;16.90;99.90;;;;;;5069558;28;19952;-68
2022/08/28 07:27:49;;;;;;;;;;;16.90;99.90;;;;;;5084183;28;19913;-68
2022/08/28 07:30:14;;;;;;;;;;;17.00;99.90;;;;;;5077274;28;19989;-68
2022/08/28 07:32:40;;;;;;;;;;;17.10;99.90;;;;;;5078552;28;19923;-67
2022/08/28 07:35:05;;;;;;;;;;;17.20;99.90;;;;;;5065263;28;19928;-67
2022/08/28 07:37:31;;;;;;;;;;;17.20;99.90;;;;;;5074636;28;20012;-67
2022/08/28 07:39:56;;;;;;;;;;;17.40;99.90;;;;;;5075947;28;19909;-67
2022/08/28 07:45:06;;;;;;;;;;;17.50;99.90;;;;;;5080736;28;19939;-68
2022/08/28 07:47:32;;;;;;;;;;;17.60;99.90;;;;;;5070470;28;19940;-68
2022/08/28 07:49:59;;;;;;;;;;;17.70;99.90;;;;;;5077238;28;19921;-68
2022/08/28 07:52:28;;;;;;;;;;;17.90;99.90;;;;;;5084966;28;19932;-68
2022/08/28 07:54:54;;;;;;;;;;;17.90;99.90;;;;;;5073309;28;20008;-68
2022/08/28 07:57:20;;;;;;;;;;;17.90;99.90;;;;;;5092743;28;19912;-68
2022/08/28 07:59:50;;;;;;;;;;;18.00;99.90;;;;;;5075889;28;19920;-68
2022/08/28 08:02:16;;;;;;;;;;;18.00;99.90;;;;;;5071770;28;19921;-68
2022/08/28 08:04:41;;;;;;;;;;;18.20;99.90;;;;;;5071122;28;19923;-68
2022/08/28 08:07:08;;;;;;;;;;;18.40;99.90;;;;;;5068260;28;19968;-67
2022/08/28 08:09:38;;;;;;;;;;;18.50;99.90;;;;;;5068217;28;19918;-68
2022/08/28 08:12:04;;;;;;;;;;;18.50;99.90;;;;;;5070058;28;20013;-67
2022/08/28 08:14:30;;;;;;;;;;;18.70;99.90;;;;;;5069326;28;19923;-67
2022/08/28 08:17:00;;;;;;;;;;;18.70;99.90;;;;;;5079315;28;20282;-67
2022/08/28 08:19:25;;;;;;;;;;;18.80;99.90;;;;;;5082708;28;19913;-68
2022/08/28 08:21:52;;;;;;;;;;;18.90;99.90;;;;;;5065797;28;19971;-66
2022/08/28 08:24:19;;;;;;;;;;;19.20;99.90;;;;;;5066244;28;19923;-68
2022/08/28 08:26:49;;;;;;;;;;;19.40;99.90;;;;;;5072349;28;20363;-68
2022/08/28 08:29:14;;;;;;;;;;;19.50;99.90;;;;;;5067124;28;20167;-67
2022/08/28 08:31:40;;;;;;;;;;;19.40;99.90;;;;;;5067550;28;20032;-67
2022/08/28 08:34:06;;;;;;;;;;;19.50;99.90;;;;;;5066220;28;19924;-67
2022/08/28 08:36:33;;;;;;;;;;;19.60;99.90;;;;;;5077310;28;19939;-67
2022/08/28 08:38:59;;;;;;;;;;;19.70;99.90;;;;;;5067624;28;19912;-68
2022/08/28 08:41:28;;;;;;;;;;;19.60;99.90;;;;;;5072638;28;19919;-68
2022/08/28 08:44:00;;;;;;;;;;;19.50;99.90;;;;;;5071732;28;19920;-68
2022/08/28 08:46:31;;;;;;;;;;;19.50;99.90;;;;;;5070503;28;19916;-67
2022/08/28 08:49:01;;;;;;;;;;;19.50;99.90;;;;;;5073962;28;20267;-67
2022/08/28 08:51:33;;;;;;;;;;;19.70;99.90;;;;;;5067256;28;20326;-67
2022/08/28 08:54:07;;;;;;;;;;;19.70;99.90;;;;;;5070141;28;19963;-68
2022/08/28 08:56:33;;;;;;;;;;;19.80;99.90;;;;;;5076081;28;19983;-68
2022/08/28 08:59:01;;;;;;;;;;;20.10;99.90;;;;;;5077025;28;19935;-67
2022/08/28 09:01:30;;;;;;;;;;;20.30;99.90;;;;;;5068903;28;19912;-67
2022/08/28 09:04:14;;;;;;;;;;;20.40;99.90;;;;;;5071824;28;19912;-66
2022/08/28 09:06:46;;;;;;;;;;;20.70;99.90;;;;;;5065874;28;19936;-67
2022/08/28 09:09:23;;;;;;;;;;;20.80;99.90;;;;;;5070010;28;19912;-67
2022/08/28 09:11:53;;;;;;;;;;;20.70;99.90;;;;;;5088713;28;19927;-68
2022/08/28 09:14:24;;;;;;;;;;;20.60;99.90;;;;;;5061160;28;19913;-67
2022/08/28 09:16:51;;;;;;;;;;;20.70;99.90;;;;;;5060562;28;20099;-67
2022/08/28 09:19:19;;;;;;;;;;;21.00;99.90;;;;;;5058738;28;19913;-67
2022/08/28 09:21:45;;;;;;;;;;;21.00;99.90;;;;;;5064858;28;19927;-68
2022/08/28 09:24:21;;;;;;;;;;;21.00;99.90;;;;;;5062696;28;20339;-68
2022/08/28 09:26:51;;;;;;;;;;;21.00;99.90;;;;;;5072558;28;19912;-68
2022/08/28 09:29:20;;;;;;;;;;;20.80;99.90;;;;;;5072700;28;19913;-68
2022/08/28 09:31:45;;;;;;;;;;;20.80;99.90;;;;;;5069453;28;19920;-69
2022/08/28 09:34:19;;;;;;;;;;;20.70;99.90;;;;;;5065092;28;19934;-68
2022/08/28 09:36:45;;;;;;;;;;;20.80;99.90;;;;;;5069884;28;19980;-68
2022/08/28 09:39:18;;;;;;;;;;;20.90;99.90;;;;;;5063213;28;20272;-68
2022/08/28 09:44:49;;;;;;;;;;;21.30;99.90;;;;;;5071674;28;19958;-68
2022/08/28 09:47:34;;;;;;;;;;;21.60;99.90;;;;;;5061675;28;20383;-68
2022/08/28 09:50:14;;;;;;;;;;;21.70;99.90;;;;;;5066102;28;20390;-68
2022/08/28 09:52:39;;;;;;;;;;;21.80;99.90;;;;;;5066047;28;20001;-68
2022/08/28 09:55:05;;;;;;;;;;;21.70;99.90;;;;;;5058697;28;19952;-67
2022/08/28 09:57:31;;;;;;;;;;;21.80;99.90;;;;;;5064086;28;19992;-68
2022/08/28 09:59:57;;;;;;;;;;;21.80;99.90;;;;;;5065347;28;20393;-68
2022/08/28 10:02:27;;;;;;;;;;;21.70;99.90;;;;;;5062663;28;20320;-67
2022/08/28 10:04:59;;;;;;;;;;;21.50;94.70;;;;;;5073941;28;19949;-67
2022/08/28 10:07:43;;;;;;;;;;;21.60;89.10;;;;;;5058895;28;19908;-68
2022/08/28 10:10:17;;;;;;;;;;;21.60;90.20;;;;;;5057636;28;21342;-67
2022/08/28 10:12:53;;;;;;;;;;;21.90;85.80;;;;;;5060330;28;20283;-69
2022/08/28 10:15:28;;;;;;;;;;;22.00;87.70;;;;;;5065968;28;19928;-68
2022/08/28 10:17:54;;;;;;;;;;;22.20;81.90;;;;;;5063120;28;19999;-68
2022/08/28 10:20:36;;;;;;;;;;;22.30;86.40;;;;;;5055428;28;20332;-69
2022/08/28 10:23:02;;;;;;;;;;;22.20;84.80;;;;;;5070391;28;20031;-68
2022/08/28 10:25:31;;;;;;;;;;;22.20;87.20;;;;;;5060093;28;19912;-68
2022/08/28 10:28:15;;;;;;;;;;;22.40;85.50;;;;;;5062216;28;19976;-67
2022/08/28 10:31:01;;;;;;;;;;;22.70;83.90;;;;;;5069775;28;19913;-68
2022/08/28 10:33:47;;;;;;;;;;;22.90;81.00;;;;;;5065172;28;19917;-68
2022/08/28 10:36:18;;;;;;;;;;;22.80;79.60;;;;;;5057476;28;19928;-68
2022/08/28 10:38:50;;;;;;;;;;;22.50;80.20;;;;;;5063137;28;19921;-68
2022/08/28 10:41:20;;;;;;;;;;;22.20;80.80;;;;;;5063395;28;19913;-69
2022/08/28 10:43:45;;;;;;;;;;;22.40;81.90;;;;;;5074735;28;19916;-69
2022/08/28 10:46:13;;;;;;;;;;;22.40;81.40;;;;;;5058796;28;19913;-68
2022/08/28 10:48:46;;;;;;;;;;;22.60;77.00;;;;;;5051075;28;20291;-68
2022/08/28 10:51:30;;;;;;;;;;;22.50;77.10;;;;;;5063776;28;20003;-67
2022/08/28 10:53:58;;;;;;;;;;;22.60;76.20;;;;;;5056182;28;19920;-68
2022/08/28 10:56:28;;;;;;;;;;;22.80;76.80;;;;;;5064224;28;19912;-68
2022/08/28 10:58:56;;;;;;;;;;;22.90;75.80;;;;;;5066220;28;19938;-67
2022/08/28 11:01:30;;;;;;;;;;;23.00;76.40;;;;;;5060407;28;19967;-68
2022/08/28 11:03:58;;;;;;;;;;;23.20;74.20;;;;;;5057975;28;19921;-67
2022/08/28 11:06:30;;;;;;;;;;;23.20;73.60;;;;;;5057196;28;19967;-68
2022/08/28 11:08:57;;;;;;;;;;;23.10;74.50;;;;;;5062462;28;20399;-68
2022/08/28 11:11:43;;;;;;;;;;;23.10;73.10;;;;;;5068028;28;19975;-68
2022/08/28 11:14:21;;;;;;;;;;;23.10;74.60;;;;;;5054718;28;19920;-67
2022/08/28 11:16:48;;;;;;;;;;;23.00;73.20;;;;;;5060008;28;19936;-67
2022/08/28 11:19:37;;;;;;;;;;;22.90;72.60;;;;;;5059609;28;19963;-68
2022/08/28 11:22:11;;;;;;;;;;;22.80;73.30;;;;;;5036636;28;19924;-68
2022/08/28 11:24:45;;;;;;;;;;;22.70;74.20;;;;;;5057842;28;20304;-67
2022/08/28 11:27:20;;;;;;;;;;;23.00;72.60;;;;;;5064568;28;19913;-68
2022/08/28 11:30:05;;;;;;;;;;;23.10;70.30;;;;;;5062527;28;19929;-67
2022/08/28 11:32:30;;;;;;;;;;;23.10;70.60;;;;;;5064848;28;20250;-67
2022/08/28 11:35:00;;;;;;;;;;;23.30;70.50;;;;;;5066284;28;19912;-68
2022/08/28 11:37:40;;;;;;;;;;;23.50;70.70;;;;;;5058532;28;19947;-68
2022/08/28 11:40:21;;;;;;;;;;;23.60;68.90;;;;;;5060487;28;19957;-68
2022/08/28 11:42:48;;;;;;;;;;;23.60;68.40;;;;;;5070200;28;22551;-67
2022/08/28 11:45:39;;;;;;;;;;;23.70;68.30;;;;;;5062910;28;19995;-68
2022/08/28 11:48:05;;;;;;;;;;;23.90;67.50;;;;;;5072254;28;19917;-67
2022/08/28 11:50:54;;;;;;;;;;;24.00;67.80;;;;;;5059917;28;19982;-68
2022/08/28 11:53:23;;;;;;;;;;;24.00;65.80;;;;;;5053867;28;19980;-68
2022/08/28 11:56:09;;;;;;;;;;;23.60;68.00;;;;;;5075993;28;19984;-68
2022/08/28 11:58:45;;;;;;;;;;;23.80;67.20;;;;;;5036637;28;19927;-68
2022/08/28 12:01:13;;;;;;;;;;;23.70;65.90;;;;;;5071086;28;19993;-68
2022/08/28 12:03:43;;;;;;;;;;;23.70;66.40;;;;;;5064320;28;19919;-68
2022/08/28 12:06:10;;;;;;;;;;;23.70;66.50;;;;;;5057661;28;19951;-68
2022/08/28 12:08:49;;;;;;;;;;;23.70;65.60;;;;;;5056195;28;19962;-68
2022/08/28 12:11:34;;;;;;;;;;;23.60;65.70;;;;;;5063680;28;19953;-67
2022/08/28 12:14:00;;;;;;;;;;;23.50;66.20;;;;;;5059962;28;19922;-68
2022/08/28 12:16:25;;;;;;;;;;;23.70;65.30;;;;;;5060855;28;20052;-68
2022/08/28 12:18:51;;;;;;;;;;;23.80;65.30;;;;;;5065959;28;19908;-68
2022/08/28 12:21:18;;;;;;;;;;;23.80;64.30;;;;;;5070718;28;19919;-68
2022/08/28 12:23:54;;;;;;;;;;;23.90;63.20;;;;;;5090191;28;20405;-69
2022/08/28 12:26:20;;;;;;;;;;;23.90;62.80;;;;;;5063808;28;19912;-67
2022/08/28 12:28:49;;;;;;;;;;;24.00;62.30;;;;;;5063602;28;20023;-67
2022/08/28 12:32:09;;;;;;;;;;;24.00;61.20;;;;;;5078144;28;19951;-69
2022/08/28 12:34:10;;;;;;;;;;;24.00;60.60;;;;;;5057177;28;19920;-68
2022/08/28 12:36:35;;;;;;;;;;;24.10;61.80;;;;;;5066796;28;19939;-68
2022/08/28 12:39:01;;;;;;;;;;;24.40;59.80;;;;;;5056953;28;19924;-68
2022/08/28 12:41:28;;;;;;;;;;;24.50;59.30;;;;;;5058897;28;19908;-67
2022/08/28 12:43:55;;;;;;;;;;;24.70;57.10;;;;;;5058040;28;19966;-68
2022/08/28 12:46:28;;;;;;;;;;;24.50;54.60;;;;;;5061948;28;20012;-68
2022/08/28 12:48:58;;;;;;;;;;;24.70;55.40;;;;;;5071528;28;19913;-67
2022/08/28 12:51:25;;;;;;;;;;;24.80;56.20;;;;;;5075754;28;19919;-67
2022/08/28 12:53:56;;;;;;;;;;;24.90;53.70;;;;;;5065817;28;19945;-68
2022/08/28 12:56:23;;;;;;;;;;;25.10;53.50;;;;;;5062254;28;19919;-68
2022/08/28 12:58:49;;;;;;;;;;;25.20;53.90;;;;;;5064416;28;19913;-68
2022/08/28 13:01:22;;;;;;;;;;;25.00;53.80;;;;;;5061471;28;20370;-67
2022/08/28 13:03:53;;;;;;;;;;;25.00;54.70;;;;;;5063156;28;19909;-67
2022/08/28 13:06:35;;;;;;;;;;;25.30;52.70;;;;;;5063294;28;19913;-67
2022/08/28 13:09:00;;;;;;;;;;;25.50;51.40;;;;;;5071530;28;19943;-68
2022/08/28 13:11:30;;;;;;;;;;;25.80;51.20;;;;;;5072701;28;19913;-69
2022/08/28 13:13:56;;;;;;;;;;;25.90;52.40;;;;;;5071415;28;19919;-68
2022/08/28 13:16:33;;;;;;;;;;;26.30;49.80;;;;;;5062074;28;20007;-69
2022/08/28 13:19:05;;;;;;;;;;;26.20;52.30;;;;;;5063625;28;19913;-69
2022/08/28 13:21:33;;;;;;;;;;;26.30;49.70;;;;;;5062541;28;19912;-70
2022/08/28 13:24:00;;;;;;;;;;;26.20;48.90;;;;;;5066556;28;19912;-68
2022/08/28 13:26:28;;;;;;;;;;;26.10;48.30;;;;;;5054698;28;20003;-68
2022/08/28 13:28:53;;;;;;;;;;;26.10;47.70;;;;;;5055723;28;19948;-68
2022/08/28 13:31:23;;;;;;;;;;;26.10;47.80;;;;;;5054750;28;20017;-69
2022/08/28 13:34:02;;;;;;;;;;;25.90;48.40;;;;;;5063087;28;19932;-68
2022/08/28 13:36:36;;;;;;;;;;;25.60;47.80;;;;;;5064012;28;20042;-69
2022/08/28 13:39:02;;;;;;;;;;;25.60;48.70;;;;;;5056443;28;19919;-68
2022/08/28 13:41:28;;;;;;;;;;;25.70;48.30;;;;;;5057775;28;19979;-68
2022/08/28 13:43:54;;;;;;;;;;;25.90;47.70;;;;;;5063557;28;19912;-69
2022/08/28 13:46:19;;;;;;;;;;;25.80;48.50;;;;;;5064610;28;19932;-69
2022/08/28 13:48:45;;;;;;;;;;;25.70;48.70;;;;;;5070940;28;19909;-68
2022/08/28 13:51:12;;;;;;;;;;;25.70;49.20;;;;;;5060465;28;19912;-68
2022/08/28 13:53:38;;;;;;;;;;;25.80;49.40;;;;;;5055781;28;19921;-67
2022/08/28 13:56:03;;;;;;;;;;;25.90;51.30;;;;;;5068418;28;19912;-68
2022/08/28 13:58:29;;;;;;;;;;;25.70;49.10;;;;;;5055108;28;20295;-68
2022/08/28 14:00:55;;;;;;;;;;;25.50;49.20;;;;;;5052988;28;19924;-68
2022/08/28 14:03:36;;;;;;;;;;;25.60;49.60;;;;;;5061137;28;19942;-68
2022/08/28 14:06:03;;;;;;;;;;;25.90;48.70;;;;;;5061593;28;19913;-68
2022/08/28 14:08:29;;;;;;;;;;;25.80;48.00;;;;;;5081016;28;19932;-68
2022/08/28 14:10:54;;;;;;;;;;;25.90;47.90;;;;;;5060292;28;19908;-67
2022/08/28 14:13:22;;;;;;;;;;;25.80;48.20;;;;;;5061729;28;19916;-67
2022/08/28 14:15:47;;;;;;;;;;;25.60;48.10;;;;;;5064320;28;19916;-67
2022/08/28 14:18:13;;;;;;;;;;;25.80;47.80;;;;;;5064876;28;19913;-68
2022/08/28 14:20:39;;;;;;;;;;;25.90;49.50;;;;;;5068306;28;19964;-68
2022/08/28 14:23:05;;;;;;;;;;;26.20;48.50;;;;;;5064110;28;19917;-68
2022/08/28 14:25:31;;;;;;;;;;;26.10;46.50;;;;;;5060876;28;19952;-67
2022/08/28 14:27:56;;;;;;;;;;;25.90;47.30;;;;;;5061545;28;19964;-67
2022/08/28 14:30:24;;;;;;;;;;;25.70;47.60;;;;;;5067468;28;20289;-68
2022/08/28 14:32:49;;;;;;;;;;;25.60;48.20;;;;;;5055127;28;19924;-67
2022/08/28 14:35:15;;;;;;;;;;;25.70;48.50;;;;;;5061044;28;19917;-67
2022/08/28 14:37:40;;;;;;;;;;;25.80;48.40;;;;;;5055841;28;19913;-67